createdAt,value
2018-06-07T00:01:09.930Z,20.10
2018-06-07T00:03:40.615Z,20.10
2018-06-07T00:06:11.483Z,20.00
2018-06-07T00:08:42.823Z,20.00
2018-06-07T00:11:13.460Z,19.90
2018-06-07T00:13:44.099Z,19.90
2018-06-07T00:16:14.815Z,19.90
2018-06-07T00:18:45.703Z,19.90
2018-06-07T00:21:16.415Z,19.90
2018-06-07T00:23:47.019Z,19.90
2018-06-07T00:26:17.644Z,19.90
2018-06-07T00:29:02.386Z,20.00
2018-06-07T00:31:33.071Z,19.90
2018-06-07T00:34:03.680Z,19.80
2018-06-07T00:36:34.306Z,19.80
2018-06-07T00:39:06.627Z,19.70
2018-06-07T00:41:37.286Z,19.60
2018-06-07T00:44:08.069Z,19.50
2018-06-07T00:47:02.502Z,19.40
2018-06-07T00:49:33.140Z,19.40
2018-06-07T00:52:03.869Z,19.30
2018-06-07T00:54:58.064Z,19.20
2018-06-07T00:57:28.704Z,19.20
2018-06-07T01:00:00.435Z,19.10
2018-06-07T01:02:31.129Z,19.10
2018-06-07T01:05:01.902Z,19.10
2018-06-07T01:07:33.333Z,19.00
2018-06-07T01:10:04.134Z,18.90
2018-06-07T01:12:35.181Z,18.90
2018-06-07T01:15:06.074Z,18.90
2018-06-07T01:17:36.868Z,18.90
2018-06-07T01:20:07.935Z,18.90
2018-06-07T01:22:38.591Z,18.90
2018-06-07T01:25:09.459Z,18.90
2018-06-07T01:27:40.059Z,18.90
2018-06-07T01:30:26.855Z,18.80
2018-06-07T01:33:27.485Z,18.80
2018-06-07T01:36:00.205Z,18.80
2018-06-07T01:38:42.906Z,18.70
2018-06-07T01:41:13.682Z,18.60
2018-06-07T01:43:44.460Z,18.60
2018-06-07T01:46:35.397Z,18.60
2018-06-07T01:49:06.431Z,18.50
2018-06-07T01:51:38.111Z,18.50
2018-06-07T01:54:08.844Z,18.50
2018-06-07T01:56:39.579Z,18.40
2018-06-07T01:59:10.728Z,18.50
2018-06-07T02:01:41.499Z,18.50
2018-06-07T02:04:12.267Z,18.50
2018-06-07T02:06:42.856Z,18.50
2018-06-07T02:09:13.599Z,18.50
2018-06-07T02:11:44.590Z,18.50
2018-06-07T02:14:15.639Z,18.50
2018-06-07T02:16:46.337Z,18.50
2018-06-07T02:19:17.153Z,18.60
2018-06-07T02:21:48.264Z,18.60
2018-06-07T02:24:18.963Z,18.60
2018-06-07T02:26:50.185Z,18.60
2018-06-07T02:29:27.139Z,18.60
2018-06-07T02:31:57.919Z,18.60
2018-06-07T02:34:28.695Z,18.70
2018-06-07T02:36:59.358Z,18.70
2018-06-07T02:39:30.103Z,18.80
2018-06-07T02:42:00.934Z,18.80
2018-06-07T02:44:31.899Z,18.80
2018-06-07T02:47:02.621Z,18.80
2018-06-07T02:49:33.259Z,18.70
2018-06-07T02:52:03.980Z,18.80
2018-06-07T02:54:34.831Z,18.80
2018-06-07T02:57:05.806Z,18.80
2018-06-07T02:59:36.527Z,18.80
2018-06-07T03:02:07.358Z,18.90
2018-06-07T03:04:41.387Z,19.00
2018-06-07T03:07:12.201Z,19.00
2018-06-07T03:09:42.959Z,19.00
2018-06-07T03:12:13.735Z,19.00
2018-06-07T03:14:44.461Z,19.10
2018-06-07T03:17:15.819Z,19.10
2018-06-07T03:19:46.716Z,19.20
2018-06-07T03:22:17.782Z,19.20
2018-06-07T03:27:45.083Z,19.30
2018-06-07T03:30:15.828Z,19.30
2018-06-07T03:32:46.527Z,19.30
2018-06-07T03:35:17.261Z,19.30
2018-06-07T03:37:48.149Z,19.30
2018-06-07T03:40:18.939Z,19.40
2018-06-07T03:42:50.736Z,19.40
2018-06-07T03:45:21.631Z,19.40
2018-06-07T03:47:52.370Z,19.40
2018-06-07T03:50:23.089Z,19.50
2018-06-07T03:52:58.061Z,19.50
2018-06-07T03:55:28.829Z,19.50
2018-06-07T03:57:59.543Z,19.60
2018-06-07T04:00:30.305Z,19.60
2018-06-07T04:03:01.010Z,19.60
2018-06-07T04:05:31.822Z,19.60
2018-06-07T04:08:03.768Z,19.70
2018-06-07T04:10:34.620Z,19.70
2018-06-07T04:13:11.066Z,19.80
2018-06-07T04:15:59.248Z,19.80
2018-06-07T04:18:35.951Z,19.90
2018-06-07T04:21:29.296Z,19.90
2018-06-07T04:24:00.132Z,20.00
2018-06-07T04:26:31.138Z,20.10
2018-06-07T04:29:01.984Z,20.20
2018-06-07T04:31:32.844Z,20.20
2018-06-07T04:34:21.685Z,20.30
2018-06-07T04:36:52.507Z,20.40
2018-06-07T04:39:23.245Z,20.40
2018-06-07T04:41:54.039Z,20.50
2018-06-07T04:44:24.800Z,20.70
2018-06-07T04:46:55.518Z,20.80
2018-06-07T04:49:28.287Z,20.90
2018-06-07T04:51:59.275Z,21.00
2018-06-07T04:54:30.028Z,21.10
2018-06-07T04:57:01.398Z,21.20
2018-06-07T04:59:32.293Z,21.40
2018-06-07T05:02:03.104Z,21.50
2018-06-07T05:07:41.027Z,21.90
2018-06-07T05:10:11.784Z,22.20
2018-06-07T05:12:42.512Z,22.40
2018-06-07T05:15:13.191Z,22.60
2018-06-07T05:17:43.785Z,22.80
2018-06-07T05:20:14.612Z,23.00
2018-06-07T05:22:51.687Z,23.40
2018-06-07T05:25:32.559Z,23.70
2018-06-07T05:28:03.399Z,24.30
2018-06-07T05:30:34.888Z,24.70
2018-06-07T05:33:06.849Z,25.10
2018-06-07T05:35:47.477Z,25.40
2018-06-07T05:38:18.341Z,25.70
2018-06-07T05:40:49.354Z,25.80
2018-06-07T05:43:20.524Z,25.90
2018-06-07T05:45:58.309Z,26.10
2018-06-07T05:48:29.663Z,26.30
2018-06-07T05:51:00.686Z,26.40
2018-06-07T05:53:31.431Z,26.20
2018-06-07T05:56:02.221Z,26.00
2018-06-07T05:58:33.073Z,25.80
2018-06-07T06:01:07.321Z,25.80
2018-06-07T06:03:38.051Z,25.60
2018-06-07T06:06:08.723Z,25.60
2018-06-07T06:08:39.579Z,25.80
2018-06-07T06:11:10.402Z,25.90
2018-06-07T06:13:41.068Z,26.10
2018-06-07T06:16:11.874Z,26.20
2018-06-07T06:18:42.669Z,26.30
2018-06-07T06:21:13.436Z,26.50
2018-06-07T06:23:44.231Z,26.60
2018-06-07T06:26:19.511Z,26.50
2018-06-07T06:28:50.203Z,26.50
2018-06-07T06:34:16.572Z,26.70
2018-06-07T06:36:47.263Z,26.80
2018-06-07T06:39:18.011Z,26.90
2018-06-07T06:41:48.801Z,26.90
2018-06-07T06:44:19.872Z,26.90
2018-06-07T06:46:50.752Z,26.90
2018-06-07T06:49:21.631Z,26.90
2018-06-07T06:51:52.467Z,26.80
2018-06-07T06:54:23.351Z,26.80
2018-06-07T06:56:54.176Z,26.60
2018-06-07T06:59:25.061Z,26.50
2018-06-07T07:01:55.857Z,26.50
2018-06-07T07:04:26.658Z,26.60
2018-06-07T07:06:57.738Z,26.70
2018-06-07T07:09:28.514Z,26.80
2018-06-07T07:11:59.412Z,26.80
2018-06-07T07:14:43.540Z,26.90
2018-06-07T07:17:14.216Z,27.00
2018-06-07T07:19:44.964Z,27.10
2018-06-07T07:22:15.701Z,27.10
2018-06-07T07:24:46.394Z,27.20
2018-06-07T07:27:17.152Z,27.40
2018-06-07T07:29:47.958Z,27.60
2018-06-07T07:32:18.577Z,28.00
2018-06-07T07:34:49.271Z,28.30
2018-06-07T07:37:20.052Z,28.50
2018-06-07T07:39:50.705Z,28.60
2018-06-07T07:42:21.467Z,28.60
2018-06-07T07:44:52.257Z,28.70
2018-06-07T07:47:23.051Z,28.80
2018-06-07T07:49:53.800Z,28.80
2018-06-07T07:52:24.549Z,28.90
2018-06-07T07:54:55.397Z,29.10
2018-06-07T07:57:26.082Z,29.20
2018-06-07T07:59:56.868Z,29.40
2018-06-07T08:02:27.655Z,29.50
2018-06-07T08:04:58.451Z,29.40
2018-06-07T08:07:29.107Z,29.30
2018-06-07T08:09:59.987Z,29.20
2018-06-07T08:12:30.743Z,29.10
2018-06-07T08:15:01.467Z,29.00
2018-06-07T08:17:32.310Z,28.90
2018-06-07T08:20:03.167Z,29.10
2018-06-07T08:22:33.886Z,29.30
2018-06-07T08:28:17.627Z,29.50
2018-06-07T08:30:48.396Z,29.70
2018-06-07T08:33:19.139Z,30.00
2018-06-07T08:35:49.841Z,30.30
2018-06-07T08:38:20.572Z,30.70
2018-06-07T08:40:51.510Z,31.00
2018-06-07T08:43:22.333Z,31.30
2018-06-07T08:45:53.030Z,31.40
2018-06-07T08:48:23.782Z,31.50
2018-06-07T08:50:54.545Z,31.30
2018-06-07T08:53:25.241Z,31.30
2018-06-07T08:55:55.980Z,31.30
2018-06-07T08:58:26.701Z,31.30
2018-06-07T09:00:57.607Z,31.10
2018-06-07T09:03:28.556Z,31.00
2018-06-07T09:05:59.193Z,31.10
2018-06-07T09:08:29.943Z,31.00
2018-06-07T09:11:00.784Z,31.10
2018-06-07T09:13:31.447Z,31.10
2018-06-07T09:16:02.195Z,31.20
2018-06-07T09:18:33.129Z,31.20
2018-06-07T09:21:03.766Z,31.50
2018-06-07T09:23:34.427Z,31.80
2018-06-07T09:26:05.289Z,32.10
2018-06-07T09:28:35.968Z,32.40
2018-06-07T09:31:06.642Z,32.50
2018-06-07T09:33:37.557Z,32.30
2018-06-07T09:36:08.341Z,32.30
2018-06-07T09:38:39.100Z,32.30
2018-06-07T09:41:09.882Z,32.40
2018-06-07T09:43:40.510Z,32.60
2018-06-07T09:46:11.343Z,32.90
2018-06-07T09:48:42.184Z,33.00
2018-06-07T09:51:12.917Z,32.40
2018-06-07T09:53:43.679Z,32.00
2018-06-07T09:56:14.400Z,31.90
2018-06-07T09:58:45.176Z,31.00
2018-06-07T10:01:15.986Z,30.50
2018-06-07T10:03:46.667Z,30.10
2018-06-07T10:06:17.591Z,29.80
2018-06-07T10:08:48.247Z,29.90
2018-06-07T10:11:19.012Z,30.20
2018-06-07T10:13:49.726Z,30.60
2018-06-07T10:16:20.667Z,30.80
2018-06-07T10:18:51.422Z,30.90
2018-06-07T10:21:22.096Z,30.30
2018-06-07T10:23:52.856Z,29.50
2018-06-07T10:26:23.695Z,29.00
2018-06-07T10:28:54.403Z,29.00
2018-06-07T10:31:25.179Z,29.30
2018-06-07T10:33:56.177Z,29.50
2018-06-07T10:36:27.000Z,29.80
2018-06-07T10:38:57.800Z,30.20
2018-06-07T10:41:28.514Z,30.50
2018-06-07T10:43:59.348Z,30.90
2018-06-07T10:46:30.130Z,31.20
2018-06-07T10:49:00.904Z,31.30
2018-06-07T10:51:31.596Z,31.30
2018-06-07T10:54:02.285Z,31.20
2018-06-07T10:56:32.948Z,31.10
2018-06-07T10:59:03.700Z,30.80
2018-06-07T11:01:34.373Z,30.80
2018-06-07T11:04:05.131Z,30.90
2018-06-07T11:09:08.533Z,31.40
2018-06-07T11:11:39.376Z,31.80
2018-06-07T11:14:10.259Z,32.20
2018-06-07T11:16:40.864Z,32.50
2018-06-07T11:19:11.555Z,32.60
2018-06-07T11:21:42.280Z,32.90
2018-06-07T11:24:13.199Z,33.10
2018-06-07T11:26:43.850Z,33.50
2018-06-07T11:29:14.661Z,33.80
2018-06-07T11:31:45.385Z,34.10
2018-06-07T11:34:16.176Z,34.30
2018-06-07T11:36:46.982Z,34.20
2018-06-07T11:39:17.612Z,34.20
2018-06-07T11:41:48.395Z,34.10
2018-06-07T11:44:19.212Z,33.90
2018-06-07T11:46:49.935Z,33.80
2018-06-07T11:49:20.668Z,33.90
2018-06-07T11:51:51.473Z,34.00
2018-06-07T11:54:22.083Z,33.80
2018-06-07T11:56:52.874Z,33.70
2018-06-07T11:59:23.708Z,33.70
2018-06-07T12:01:54.426Z,33.80
2018-06-07T12:04:25.288Z,33.90
2018-06-07T12:06:56.089Z,33.70
2018-06-07T12:09:28.071Z,33.60
2018-06-07T12:11:58.732Z,33.40
2018-06-07T12:14:29.399Z,33.20
2018-06-07T12:17:00.254Z,33.10
2018-06-07T12:19:31.027Z,33.00
2018-06-07T12:22:01.761Z,32.90
2018-06-07T12:24:32.593Z,32.70
2018-06-07T12:27:03.326Z,32.80
2018-06-07T12:29:33.959Z,32.90
2018-06-07T12:32:04.868Z,33.10
2018-06-07T12:34:35.643Z,32.90
2018-06-07T12:37:06.332Z,32.80
2018-06-07T12:39:36.968Z,33.00
2018-06-07T12:42:07.734Z,33.30
2018-06-07T12:44:38.555Z,33.50
2018-06-07T12:47:09.268Z,33.50
2018-06-07T12:49:40.069Z,33.40
2018-06-07T12:52:10.772Z,33.10
2018-06-07T12:54:41.476Z,32.90
2018-06-07T12:57:12.330Z,32.30
2018-06-07T12:59:43.022Z,32.00
2018-06-07T13:02:13.776Z,32.40
2018-06-07T13:04:44.615Z,32.70
2018-06-07T13:07:15.306Z,33.20
2018-06-07T13:09:46.105Z,33.50
2018-06-07T13:12:16.849Z,33.70
2018-06-07T13:14:47.789Z,33.80
2018-06-07T13:17:18.699Z,34.10
2018-06-07T13:19:49.464Z,34.50
2018-06-07T13:22:20.164Z,35.10
2018-06-07T13:24:50.913Z,35.40
2018-06-07T13:27:21.657Z,34.60
2018-06-07T13:29:52.403Z,34.40
2018-06-07T13:32:23.229Z,34.70
2018-06-07T13:34:53.973Z,34.80
2018-06-07T13:37:24.643Z,34.70
2018-06-07T13:39:55.457Z,34.40
2018-06-07T13:42:26.249Z,34.10
2018-06-07T13:44:57.083Z,33.80
2018-06-07T13:47:27.796Z,33.50
2018-06-07T13:49:58.725Z,33.40
2018-06-07T13:52:29.470Z,33.20
2018-06-07T13:55:00.300Z,33.10
2018-06-07T13:57:31.100Z,33.00
2018-06-07T14:00:01.758Z,32.90
2018-06-07T14:02:32.461Z,32.70
2018-06-07T14:05:03.372Z,32.40
2018-06-07T14:07:34.046Z,32.10
2018-06-07T14:10:04.918Z,31.70
2018-06-07T14:12:35.606Z,31.60
2018-06-07T14:15:06.331Z,31.40
2018-06-07T14:17:37.215Z,31.10
2018-06-07T14:20:07.992Z,30.90
2018-06-07T14:22:38.740Z,30.60
2018-06-07T14:25:09.540Z,30.60
2018-06-07T14:27:40.322Z,30.50
2018-06-07T14:30:11.108Z,30.30
2018-06-07T14:32:41.880Z,30.30
2018-06-07T14:35:12.579Z,30.40
2018-06-07T14:37:43.375Z,30.40
2018-06-07T14:40:14.161Z,30.40
2018-06-07T14:42:44.972Z,30.40
2018-06-07T14:45:15.717Z,30.30
2018-06-07T14:47:46.594Z,30.30
2018-06-07T14:50:17.285Z,30.30
2018-06-07T14:52:48.036Z,30.20
2018-06-07T14:55:18.840Z,30.20
2018-06-07T14:57:49.616Z,30.20
2018-06-07T15:00:20.353Z,30.10
2018-06-07T15:02:51.225Z,30.10
2018-06-07T15:05:21.995Z,30.00
2018-06-07T15:07:52.876Z,29.90
2018-06-07T15:10:23.666Z,29.90
2018-06-07T15:12:54.542Z,29.80
2018-06-07T15:15:25.268Z,29.80
2018-06-07T15:17:56.003Z,29.70
2018-06-07T15:20:26.960Z,29.60
2018-06-07T15:22:57.759Z,29.50
2018-06-07T15:25:30.605Z,29.50
2018-06-07T15:28:01.367Z,29.40
2018-06-07T15:30:32.206Z,29.40
2018-06-07T15:33:02.848Z,29.40
2018-06-07T15:35:33.656Z,29.50
2018-06-07T15:38:04.446Z,29.60
2018-06-07T15:40:35.172Z,29.60
2018-06-07T15:43:05.927Z,29.70
2018-06-07T15:45:36.575Z,29.70
2018-06-07T15:48:07.424Z,29.80
2018-06-07T15:50:38.066Z,29.80
2018-06-07T15:53:08.795Z,29.70
2018-06-07T15:55:39.595Z,29.80
2018-06-07T15:58:10.392Z,29.50
2018-06-07T16:00:41.928Z,29.20
2018-06-07T16:03:12.663Z,29.00
2018-06-07T16:05:43.402Z,28.70
2018-06-07T16:08:14.044Z,28.60
2018-06-07T16:10:44.874Z,28.50
2018-06-07T16:13:15.637Z,28.10
2018-06-07T16:15:46.435Z,27.80
2018-06-07T16:18:17.272Z,27.50
2018-06-07T16:20:48.020Z,27.50
2018-06-07T16:23:18.763Z,27.30
2018-06-07T16:25:49.467Z,27.10
2018-06-07T16:28:20.129Z,26.90
2018-06-07T16:30:50.828Z,26.90
2018-06-07T16:33:21.520Z,26.70
2018-06-07T16:38:22.208Z,26.60
2018-06-07T16:40:52.952Z,26.50
2018-06-07T16:43:23.555Z,26.40
2018-06-07T16:45:54.302Z,26.30
2018-06-07T16:48:48.332Z,26.00
2018-06-07T16:51:19.090Z,25.40
2018-06-07T16:53:49.890Z,25.00
2018-06-07T16:56:20.615Z,24.80
2018-06-07T16:58:51.333Z,24.20
2018-06-07T17:01:22.053Z,23.50
2018-06-07T17:03:52.735Z,22.40
2018-06-07T17:06:23.451Z,22.00
2018-06-07T17:08:54.142Z,21.50
2018-06-07T17:11:24.832Z,21.30
2018-06-07T17:13:55.394Z,20.30
2018-06-07T17:16:26.186Z,18.50
2018-06-07T17:18:56.892Z,17.50
2018-06-07T17:21:27.573Z,16.80
2018-06-07T17:23:58.340Z,16.50
2018-06-07T17:26:28.994Z,16.40
2018-06-07T17:28:59.731Z,16.40
2018-06-07T17:31:30.668Z,16.30
2018-06-07T17:34:01.481Z,16.40
2018-06-07T17:36:32.139Z,16.40
2018-06-07T17:39:02.863Z,16.40
2018-06-07T17:41:33.672Z,16.40
2018-06-07T17:44:04.529Z,16.30
2018-06-07T17:46:35.257Z,16.40
2018-06-07T17:49:06.043Z,16.40
2018-06-07T17:51:36.867Z,16.50
2018-06-07T17:54:12.387Z,16.50
2018-06-07T17:56:43.205Z,16.60
2018-06-07T17:59:13.964Z,16.70
2018-06-07T18:01:44.743Z,16.90
2018-06-07T18:04:15.464Z,17.00
2018-06-07T18:06:46.184Z,17.00
2018-06-07T18:09:16.918Z,17.10
2018-06-07T18:11:47.710Z,17.20
2018-06-07T18:14:18.481Z,17.20
2018-06-07T18:17:04.697Z,17.20
2018-06-07T18:19:35.527Z,17.30
2018-06-07T18:25:30.831Z,17.60
2018-06-07T18:28:01.567Z,17.70
2018-06-07T18:30:32.348Z,17.80
2018-06-07T18:33:03.169Z,18.00
2018-06-07T18:35:33.816Z,17.90
2018-06-07T18:38:04.515Z,17.60
2018-06-07T18:43:30.052Z,17.30
2018-06-07T18:46:02.921Z,17.20
2018-06-07T18:51:28.352Z,17.30
2018-06-07T18:53:59.068Z,17.20
2018-06-07T18:56:30.216Z,17.20
2018-06-07T18:59:07.189Z,17.20
2018-06-07T19:01:38.036Z,17.20
2018-06-07T19:04:08.788Z,17.10
2018-06-07T19:06:39.612Z,17.10
2018-06-07T19:09:15.294Z,17.10
2018-06-07T19:11:51.495Z,17.10
2018-06-07T19:14:27.351Z,17.20
2018-06-07T19:16:58.028Z,17.20
2018-06-07T19:19:33.768Z,17.30
2018-06-07T19:22:13.266Z,17.30
2018-06-07T19:24:48.065Z,17.20
2018-06-07T19:27:23.997Z,17.20
2018-06-07T19:29:55.123Z,17.10
2018-06-07T19:32:31.182Z,17.10
2018-06-07T19:35:05.604Z,17.20
2018-06-07T19:37:36.378Z,17.20
2018-06-07T19:40:16.761Z,17.30
2018-06-07T19:42:47.367Z,17.30
2018-06-07T19:45:18.093Z,17.30
2018-06-07T19:47:48.788Z,17.30
2018-06-07T19:53:19.791Z,17.40
2018-06-07T19:55:50.605Z,17.30
2018-06-07T19:58:21.365Z,17.30
2018-06-07T20:00:52.207Z,17.30
2018-06-07T20:03:22.951Z,17.30
2018-06-07T20:09:19.500Z,17.30
2018-06-07T20:11:50.345Z,17.20
2018-06-07T20:14:21.157Z,17.20
2018-06-07T20:16:52.152Z,17.20
2018-06-07T20:19:22.911Z,17.20
2018-06-07T20:21:53.545Z,17.20
2018-06-07T20:24:41.791Z,17.20
2018-06-07T20:27:12.463Z,17.10
2018-06-07T20:29:43.154Z,17.10
2018-06-07T20:32:14.009Z,17.10
2018-06-07T20:34:44.824Z,17.10
2018-06-07T20:37:15.447Z,17.10
2018-06-07T20:39:46.235Z,17.10
2018-06-07T20:42:16.922Z,17.10
2018-06-07T20:44:47.577Z,17.10
2018-06-07T20:47:18.293Z,17.00
2018-06-07T20:49:49.101Z,17.10
2018-06-07T20:52:19.740Z,17.00
2018-06-07T20:57:59.272Z,17.00
2018-06-07T21:00:29.925Z,17.00
2018-06-07T21:03:00.730Z,17.00
2018-06-07T21:05:31.393Z,17.00
2018-06-07T21:08:02.104Z,16.90
2018-06-07T21:13:29.563Z,16.90
2018-06-07T21:16:00.391Z,16.90
2018-06-07T21:18:31.139Z,16.90
2018-06-07T21:21:03.064Z,16.90
2018-06-07T21:23:33.708Z,16.90
2018-06-07T21:26:04.432Z,16.90
2018-06-07T21:28:35.168Z,17.00
2018-06-07T21:31:06.250Z,17.00
2018-06-07T21:33:36.900Z,17.00
2018-06-07T21:36:07.657Z,17.00
2018-06-07T21:38:38.292Z,17.00
2018-06-07T21:41:09.224Z,17.00
2018-06-07T21:43:39.919Z,17.00
2018-06-07T21:46:10.604Z,17.00
2018-06-07T21:48:41.797Z,17.00
2018-06-07T21:51:13.019Z,17.00
2018-06-07T21:53:44.030Z,17.10
2018-06-07T21:56:14.808Z,17.10
2018-06-07T21:58:44.929Z,17.10
2018-06-07T22:01:15.654Z,17.20
2018-06-07T22:03:46.354Z,17.20
2018-06-07T22:06:17.132Z,17.30
2018-06-07T22:08:47.980Z,17.30
2018-06-07T22:11:18.966Z,17.30
2018-06-07T22:13:49.832Z,17.30
2018-06-07T22:16:20.650Z,17.40
2018-06-07T22:18:51.368Z,17.30
2018-06-07T22:21:22.217Z,17.30
2018-06-07T22:23:52.977Z,17.30
2018-06-07T22:26:23.805Z,17.30
2018-06-07T22:28:54.515Z,17.20
2018-06-07T22:31:25.279Z,17.30
2018-06-07T22:33:56.451Z,17.30
2018-06-07T22:36:27.228Z,17.20
2018-06-07T22:38:57.946Z,17.20
2018-06-07T22:41:29.203Z,17.20
2018-06-07T22:43:59.939Z,17.20
2018-06-07T22:46:30.660Z,17.20
2018-06-07T22:49:01.352Z,17.20
2018-06-07T22:51:32.155Z,17.20
2018-06-07T22:54:02.899Z,17.20
2018-06-07T22:56:33.624Z,17.20
2018-06-07T22:59:04.427Z,17.20
2018-06-07T23:01:35.183Z,17.20
2018-06-07T23:04:06.012Z,17.20
2018-06-07T23:06:36.817Z,17.20
2018-06-07T23:09:09.535Z,17.10
2018-06-07T23:11:42.258Z,17.10
2018-06-07T23:14:13.152Z,17.00
2018-06-07T23:16:43.983Z,17.00
2018-06-07T23:19:14.770Z,17.00
2018-06-07T23:21:45.666Z,17.00
2018-06-07T23:24:16.472Z,17.00
2018-06-07T23:26:47.111Z,17.10
2018-06-07T23:29:42.093Z,17.10
2018-06-07T23:32:12.879Z,17.10
2018-06-07T23:34:43.567Z,17.10
2018-06-07T23:37:14.335Z,17.10
2018-06-07T23:39:45.928Z,17.20
2018-06-07T23:42:16.773Z,17.30
2018-06-07T23:44:47.589Z,17.30
2018-06-07T23:47:18.443Z,17.40
2018-06-07T23:49:49.263Z,17.40
2018-06-07T23:54:50.116Z,17.50
2018-06-07T23:57:20.712Z,17.60
2018-06-07T23:59:51.345Z,17.60
